Terminal Aerodrome Forecast
Issued by NWS

Home | Current Version | Previous Version | Text Only | Print | Product List | Glossary On
Versions: 1 2 3 4 5 6 7 8 9 10 11 12 13 14 15 16 17 18 19 20 21 22
548
FTUS45 KRIW 201000 AAA
TAFCPR
TAF AMD
KCPR 201004Z 2010/2106 07009KT 2SM -SN SCT007 OVC015
     FM201300 09010KT 6SM -SN BR SCT008 OVC025
     FM201600 09007KT P6SM VCSH BKN028
     FM202000 09010KT P6SM BKN040
     FM210200 11010G15KT P6SM SCT040=

USA.gov is the U.S. government's official web portal to all federal, state and local government web resources and services.